sensor_id;sensor_type;location;lat;lon;timestamp;temperature;humidity
23305;DHT22;11821;51.456;8.844;2023-06-10T00:11:44;19.00;99.90
23305;DHT22;11821;51.456;8.844;2023-06-10T00:14:10;18.40;99.90
23305;DHT22;11821;51.456;8.844;2023-06-10T07:12:28;18.30;99.90
23305;DHT22;11821;51.456;8.844;2023-06-10T07:14:55;24.20;99.90
23305;DHT22;11821;51.456;8.844;2023-06-10T07:17:21;24.30;99.90
23305;DHT22;11821;51.456;8.844;2023-06-10T07:19:48;24.50;99.90
23305;DHT22;11821;51.456;8.844;2023-06-10T07:22:14;24.90;99.90
23305;DHT22;11821;51.456;8.844;2023-06-10T07:24:40;25.00;99.90
23305;DHT22;11821;51.456;8.844;2023-06-10T07:27:07;25.20;99.90
23305;DHT22;11821;51.456;8.844;2023-06-10T07:29:33;25.40;99.90
23305;DHT22;11821;51.456;8.844;2023-06-10T07:32:03;25.60;99.90
23305;DHT22;11821;51.456;8.844;2023-06-10T07:34:29;25.90;99.90
23305;DHT22;11821;51.456;8.844;2023-06-10T07:36:56;26.10;99.90
23305;DHT22;11821;51.456;8.844;2023-06-10T07:39:22;26.40;99.90
23305;DHT22;11821;51.456;8.844;2023-06-10T07:41:48;26.60;99.40
23305;DHT22;11821;51.456;8.844;2023-06-10T07:44:15;26.80;99.00
23305;DHT22;11821;51.456;8.844;2023-06-10T07:46:41;27.10;99.00
23305;DHT22;11821;51.456;8.844;2023-06-10T07:49:08;27.30;97.90
23305;DHT22;11821;51.456;8.844;2023-06-10T07:51:34;27.30;96.80
23305;DHT22;11821;51.456;8.844;2023-06-10T07:54:00;27.50;95.60
23305;DHT22;11821;51.456;8.844;2023-06-10T07:56:27;27.80;96.80
23305;DHT22;11821;51.456;8.844;2023-06-10T07:58:53;27.90;96.10
23305;DHT22;11821;51.456;8.844;2023-06-10T08:01:19;27.90;95.30
23305;DHT22;11821;51.456;8.844;2023-06-10T08:03:45;27.90;94.80
23305;DHT22;11821;51.456;8.844;2023-06-10T08:06:11;28.40;95.20
23305;DHT22;11821;51.456;8.844;2023-06-10T08:08:37;28.40;95.10
23305;DHT22;11821;51.456;8.844;2023-06-10T08:11:10;28.60;95.30
23305;DHT22;11821;51.456;8.844;2023-06-10T08:13:36;28.60;95.00
23305;DHT22;11821;51.456;8.844;2023-06-10T08:16:03;28.70;94.50
23305;DHT22;11821;51.456;8.844;2023-06-10T08:18:30;28.90;94.60
23305;DHT22;11821;51.456;8.844;2023-06-10T08:20:56;29.10;94.40
23305;DHT22;11821;51.456;8.844;2023-06-10T08:23:22;29.10;94.50
23305;DHT22;11821;51.456;8.844;2023-06-10T08:25:48;29.20;94.20
23305;DHT22;11821;51.456;8.844;2023-06-10T08:28:14;29.30;94.20
23305;DHT22;11821;51.456;8.844;2023-06-10T08:30:41;29.50;94.10
23305;DHT22;11821;51.456;8.844;2023-06-10T08:33:07;29.50;94.10
23305;DHT22;11821;51.456;8.844;2023-06-10T08:35:33;29.70;93.80
23305;DHT22;11821;51.456;8.844;2023-06-10T08:37:59;29.70;93.70
23305;DHT22;11821;51.456;8.844;2023-06-10T08:40:25;30.00;94.00
23305;DHT22;11821;51.456;8.844;2023-06-10T08:43:08;30.10;93.30
23305;DHT22;11821;51.456;8.844;2023-06-10T08:45:37;30.30;93.70
23305;DHT22;11821;51.456;8.844;2023-06-10T08:48:04;30.50;93.20
23305;DHT22;11821;51.456;8.844;2023-06-10T08:50:35;30.40;93.10
23305;DHT22;11821;51.456;8.844;2023-06-10T08:53:05;30.50;93.10
23305;DHT22;11821;51.456;8.844;2023-06-10T08:55:46;30.70;92.30
23305;DHT22;11821;51.456;8.844;2023-06-10T08:58:17;30.70;93.70
23305;DHT22;11821;51.456;8.844;2023-06-10T09:00:44;30.90;93.00
23305;DHT22;11821;51.456;8.844;2023-06-10T09:03:10;31.00;92.80
23305;DHT22;11821;51.456;8.844;2023-06-10T09:05:38;31.30;93.10
23305;DHT22;11821;51.456;8.844;2023-06-10T09:08:06;31.10;93.10
23305;DHT22;11821;51.456;8.844;2023-06-10T09:10:35;31.20;92.70
23305;DHT22;11821;51.456;8.844;2023-06-10T09:13:01;31.40;92.90
23305;DHT22;11821;51.456;8.844;2023-06-10T09:15:27;31.60;91.80
23305;DHT22;11821;51.456;8.844;2023-06-10T09:17:54;31.80;92.10
23305;DHT22;11821;51.456;8.844;2023-06-10T09:20:20;31.70;92.00
23305;DHT22;11821;51.456;8.844;2023-06-10T09:22:47;31.40;91.90
23305;DHT22;11821;51.456;8.844;2023-06-10T09:25:13;31.60;91.60
23305;DHT22;11821;51.456;8.844;2023-06-10T09:27:50;31.80;91.10
23305;DHT22;11821;51.456;8.844;2023-06-10T09:30:27;32.00;91.80
23305;DHT22;11821;51.456;8.844;2023-06-10T09:32:55;32.00;91.70
23305;DHT22;11821;51.456;8.844;2023-06-10T09:35:23;32.10;91.40
23305;DHT22;11821;51.456;8.844;2023-06-10T09:37:54;32.10;90.70
23305;DHT22;11821;51.456;8.844;2023-06-10T09:40:21;32.40;91.30
23305;DHT22;11821;51.456;8.844;2023-06-10T09:42:53;32.30;91.40
23305;DHT22;11821;51.456;8.844;2023-06-10T09:45:21;32.40;90.60
23305;DHT22;11821;51.456;8.844;2023-06-10T09:47:51;32.40;90.40
23305;DHT22;11821;51.456;8.844;2023-06-10T09:50:18;32.50;91.30
23305;DHT22;11821;51.456;8.844;2023-06-10T09:52:46;32.70;91.30
23305;DHT22;11821;51.456;8.844;2023-06-10T09:55:12;33.00;90.90
23305;DHT22;11821;51.456;8.844;2023-06-10T09:57:38;33.30;90.40
23305;DHT22;11821;51.456;8.844;2023-06-10T10:00:09;33.20;90.10
23305;DHT22;11821;51.456;8.844;2023-06-10T10:02:49;33.40;90.30
23305;DHT22;11821;51.456;8.844;2023-06-10T10:05:17;33.20;90.20
23305;DHT22;11821;51.456;8.844;2023-06-10T10:07:44;33.40;89.80
23305;DHT22;11821;51.456;8.844;2023-06-10T10:10:12;33.10;90.20
23305;DHT22;11821;51.456;8.844;2023-06-10T10:12:39;33.50;90.10
23305;DHT22;11821;51.456;8.844;2023-06-10T10:15:10;33.40;90.30
23305;DHT22;11821;51.456;8.844;2023-06-10T10:17:52;33.40;90.00
23305;DHT22;11821;51.456;8.844;2023-06-10T10:20:22;32.50;89.00
23305;DHT22;11821;51.456;8.844;2023-06-10T10:22:51;33.00;88.20
23305;DHT22;11821;51.456;8.844;2023-06-10T10:25:25;32.90;89.70
23305;DHT22;11821;51.456;8.844;2023-06-10T10:27:57;33.00;90.40
23305;DHT22;11821;51.456;8.844;2023-06-10T10:30:25;33.60;88.40
23305;DHT22;11821;51.456;8.844;2023-06-10T10:33:00;33.40;89.00
23305;DHT22;11821;51.456;8.844;2023-06-10T10:35:32;33.60;90.00
23305;DHT22;11821;51.456;8.844;2023-06-10T10:38:00;33.80;89.40
23305;DHT22;11821;51.456;8.844;2023-06-10T10:40:27;34.00;88.70
23305;DHT22;11821;51.456;8.844;2023-06-10T10:42:56;33.50;89.10
23305;DHT22;11821;51.456;8.844;2023-06-10T10:45:24;33.40;88.40
23305;DHT22;11821;51.456;8.844;2023-06-10T10:47:54;33.50;86.70
23305;DHT22;11821;51.456;8.844;2023-06-10T10:50:22;33.80;89.20
23305;DHT22;11821;51.456;8.844;2023-06-10T10:52:53;34.00;90.50
23305;DHT22;11821;51.456;8.844;2023-06-10T10:55:21;33.70;87.80
23305;DHT22;11821;51.456;8.844;2023-06-10T10:58:03;34.00;89.20
23305;DHT22;11821;51.456;8.844;2023-06-10T11:00:37;33.30;88.00
23305;DHT22;11821;51.456;8.844;2023-06-10T11:03:05;33.50;89.50
23305;DHT22;11821;51.456;8.844;2023-06-10T11:05:40;33.90;89.30
23305;DHT22;11821;51.456;8.844;2023-06-10T11:08:08;34.30;86.80
23305;DHT22;11821;51.456;8.844;2023-06-10T11:10:39;33.80;84.00
23305;DHT22;11821;51.456;8.844;2023-06-10T11:13:07;33.60;87.80
23305;DHT22;11821;51.456;8.844;2023-06-10T11:15:38;33.00;89.20
23305;DHT22;11821;51.456;8.844;2023-06-10T11:18:09;33.60;87.20
23305;DHT22;11821;51.456;8.844;2023-06-10T11:26:11;34.30;86.70
23305;DHT22;11821;51.456;8.844;2023-06-10T11:29:00;33.90;85.80
23305;DHT22;11821;51.456;8.844;2023-06-10T11:31:28;33.70;85.70
23305;DHT22;11821;51.456;8.844;2023-06-10T11:34:04;34.20;86.30
23305;DHT22;11821;51.456;8.844;2023-06-10T11:36:34;33.60;84.80
23305;DHT22;11821;51.456;8.844;2023-06-10T11:39:02;34.10;86.70
23305;DHT22;11821;51.456;8.844;2023-06-10T11:41:30;34.10;88.40
23305;DHT22;11821;51.456;8.844;2023-06-10T11:44:00;33.70;83.10
23305;DHT22;11821;51.456;8.844;2023-06-10T11:46:27;33.80;85.30
23305;DHT22;11821;51.456;8.844;2023-06-10T11:48:55;34.00;86.30
23305;DHT22;11821;51.456;8.844;2023-06-10T11:51:24;34.10;85.20
23305;DHT22;11821;51.456;8.844;2023-06-10T11:53:51;34.00;85.10
23305;DHT22;11821;51.456;8.844;2023-06-10T11:56:26;34.10;86.00
23305;DHT22;11821;51.456;8.844;2023-06-10T11:58:57;34.50;86.10
23305;DHT22;11821;51.456;8.844;2023-06-10T12:01:26;34.60;85.80
23305;DHT22;11821;51.456;8.844;2023-06-10T12:04:07;33.60;85.30
23305;DHT22;11821;51.456;8.844;2023-06-10T12:06:42;33.60;83.20
23305;DHT22;11821;51.456;8.844;2023-06-10T12:09:19;33.70;86.10
23305;DHT22;11821;51.456;8.844;2023-06-10T12:11:55;34.50;86.90
23305;DHT22;11821;51.456;8.844;2023-06-10T12:14:51;34.70;86.20
23305;DHT22;11821;51.456;8.844;2023-06-10T12:17:22;34.90;85.10
23305;DHT22;11821;51.456;8.844;2023-06-10T12:19:49;34.70;84.70
23305;DHT22;11821;51.456;8.844;2023-06-10T12:22:16;34.80;85.00
23305;DHT22;11821;51.456;8.844;2023-06-10T12:24:57;34.90;85.10
23305;DHT22;11821;51.456;8.844;2023-06-10T12:27:25;35.00;83.00
23305;DHT22;11821;51.456;8.844;2023-06-10T12:29:52;34.40;84.20
23305;DHT22;11821;51.456;8.844;2023-06-10T12:32:19;34.80;85.00
23305;DHT22;11821;51.456;8.844;2023-06-10T12:34:48;35.00;85.10
23305;DHT22;11821;51.456;8.844;2023-06-10T12:37:15;34.90;79.10
23305;DHT22;11821;51.456;8.844;2023-06-10T12:39:41;34.50;82.10
23305;DHT22;11821;51.456;8.844;2023-06-10T12:42:09;34.70;83.90
23305;DHT22;11821;51.456;8.844;2023-06-10T12:44:39;34.80;85.10
23305;DHT22;11821;51.456;8.844;2023-06-10T12:47:09;34.90;82.80
23305;DHT22;11821;51.456;8.844;2023-06-10T12:49:36;34.80;85.10
23305;DHT22;11821;51.456;8.844;2023-06-10T12:52:04;35.20;82.80
23305;DHT22;11821;51.456;8.844;2023-06-10T12:54:31;35.30;80.90
23305;DHT22;11821;51.456;8.844;2023-06-10T12:56:57;35.40;80.00
23305;DHT22;11821;51.456;8.844;2023-06-10T12:59:23;35.50;79.40
23305;DHT22;11821;51.456;8.844;2023-06-10T13:01:54;35.10;80.70
23305;DHT22;11821;51.456;8.844;2023-06-10T13:04:21;34.30;79.70
23305;DHT22;11821;51.456;8.844;2023-06-10T13:06:48;34.50;84.10
23305;DHT22;11821;51.456;8.844;2023-06-10T13:09:15;35.10;83.80
23305;DHT22;11821;51.456;8.844;2023-06-10T13:11:42;35.30;82.30
23305;DHT22;11821;51.456;8.844;2023-06-10T13:14:10;35.50;80.30
23305;DHT22;11821;51.456;8.844;2023-06-10T13:16:36;35.20;79.10
23305;DHT22;11821;51.456;8.844;2023-06-10T13:19:05;35.30;79.70
23305;DHT22;11821;51.456;8.844;2023-06-10T13:21:34;35.40;82.20
23305;DHT22;11821;51.456;8.844;2023-06-10T13:24:01;35.30;80.50
23305;DHT22;11821;51.456;8.844;2023-06-10T13:26:27;34.90;80.00
23305;DHT22;11821;51.456;8.844;2023-06-10T13:28:53;34.60;77.10
23305;DHT22;11821;51.456;8.844;2023-06-10T13:31:19;34.90;82.60
23305;DHT22;11821;51.456;8.844;2023-06-10T13:33:46;34.80;79.60
23305;DHT22;11821;51.456;8.844;2023-06-10T13:36:13;34.60;80.30
23305;DHT22;11821;51.456;8.844;2023-06-10T13:38:39;34.40;81.90
23305;DHT22;11821;51.456;8.844;2023-06-10T13:41:05;35.00;82.60
23305;DHT22;11821;51.456;8.844;2023-06-10T13:43:32;35.40;80.70
23305;DHT22;11821;51.456;8.844;2023-06-10T13:45:58;35.10;82.20
23305;DHT22;11821;51.456;8.844;2023-06-10T13:48:24;34.60;78.20
23305;DHT22;11821;51.456;8.844;2023-06-10T13:50:51;34.30;80.60
23305;DHT22;11821;51.456;8.844;2023-06-10T13:53:17;34.60;80.60
23305;DHT22;11821;51.456;8.844;2023-06-10T13:55:43;34.60;80.10
23305;DHT22;11821;51.456;8.844;2023-06-10T13:58:09;34.90;82.20
23305;DHT22;11821;51.456;8.844;2023-06-10T14:00:35;34.90;81.90
23305;DHT22;11821;51.456;8.844;2023-06-10T14:03:01;35.10;83.00
23305;DHT22;11821;51.456;8.844;2023-06-10T14:05:29;35.40;80.80
23305;DHT22;11821;51.456;8.844;2023-06-10T14:07:55;35.60;80.50
23305;DHT22;11821;51.456;8.844;2023-06-10T14:10:21;35.80;79.10
23305;DHT22;11821;51.456;8.844;2023-06-10T14:12:48;35.70;77.70
23305;DHT22;11821;51.456;8.844;2023-06-10T14:15:15;35.30;79.30
23305;DHT22;11821;51.456;8.844;2023-06-10T14:17:41;34.40;78.70
23305;DHT22;11821;51.456;8.844;2023-06-10T14:20:07;34.20;80.50
23305;DHT22;11821;51.456;8.844;2023-06-10T14:22:33;34.20;79.90
23305;DHT22;11821;51.456;8.844;2023-06-10T14:25:00;33.70;78.20
23305;DHT22;11821;51.456;8.844;2023-06-10T14:27:26;33.50;77.90
23305;DHT22;11821;51.456;8.844;2023-06-10T14:29:52;33.80;79.20
23305;DHT22;11821;51.456;8.844;2023-06-10T14:32:18;34.20;77.80
23305;DHT22;11821;51.456;8.844;2023-06-10T14:34:44;34.30;82.60
23305;DHT22;11821;51.456;8.844;2023-06-10T14:37:12;34.30;80.80
23305;DHT22;11821;51.456;8.844;2023-06-10T14:39:39;34.10;82.00
23305;DHT22;11821;51.456;8.844;2023-06-10T14:42:05;34.10;82.10
23305;DHT22;11821;51.456;8.844;2023-06-10T14:44:32;33.80;83.80
23305;DHT22;11821;51.456;8.844;2023-06-10T14:46:58;33.20;84.60
23305;DHT22;11821;51.456;8.844;2023-06-10T14:49:24;33.00;84.70
23305;DHT22;11821;51.456;8.844;2023-06-10T14:51:50;32.90;85.40
23305;DHT22;11821;51.456;8.844;2023-06-10T14:54:16;33.10;86.20
23305;DHT22;11821;51.456;8.844;2023-06-10T14:56:43;33.00;85.70
23305;DHT22;11821;51.456;8.844;2023-06-10T14:59:09;33.10;85.50
23305;DHT22;11821;51.456;8.844;2023-06-10T15:01:35;33.50;86.80
23305;DHT22;11821;51.456;8.844;2023-06-10T15:04:01;33.60;86.20
23305;DHT22;11821;51.456;8.844;2023-06-10T15:06:28;33.20;84.20
23305;DHT22;11821;51.456;8.844;2023-06-10T15:08:54;33.50;86.40
23305;DHT22;11821;51.456;8.844;2023-06-10T15:11:20;33.50;84.10
23305;DHT22;11821;51.456;8.844;2023-06-10T15:13:47;33.30;82.40
23305;DHT22;11821;51.456;8.844;2023-06-10T15:16:13;33.60;83.10
23305;DHT22;11821;51.456;8.844;2023-06-10T15:18:40;33.10;84.70
23305;DHT22;11821;51.456;8.844;2023-06-10T15:21:07;33.40;83.80
23305;DHT22;11821;51.456;8.844;2023-06-10T15:23:33;33.20;83.20
23305;DHT22;11821;51.456;8.844;2023-06-10T15:25:59;33.30;82.30
23305;DHT22;11821;51.456;8.844;2023-06-10T15:28:25;33.20;81.50
23305;DHT22;11821;51.456;8.844;2023-06-10T15:30:51;33.00;81.80
23305;DHT22;11821;51.456;8.844;2023-06-10T15:33:17;33.00;82.50
23305;DHT22;11821;51.456;8.844;2023-06-10T15:35:43;33.20;86.10
23305;DHT22;11821;51.456;8.844;2023-06-10T15:38:10;33.20;82.80
23305;DHT22;11821;51.456;8.844;2023-06-10T15:40:36;33.10;82.30
23305;DHT22;11821;51.456;8.844;2023-06-10T15:43:02;33.20;84.90
23305;DHT22;11821;51.456;8.844;2023-06-10T15:45:29;33.50;83.20
23305;DHT22;11821;51.456;8.844;2023-06-10T15:47:55;33.30;82.10
23305;DHT22;11821;51.456;8.844;2023-06-10T15:50:21;33.30;85.50
23305;DHT22;11821;51.456;8.844;2023-06-10T15:52:47;33.20;81.10
23305;DHT22;11821;51.456;8.844;2023-06-10T15:55:13;33.20;83.50
23305;DHT22;11821;51.456;8.844;2023-06-10T15:57:40;33.00;83.20
23305;DHT22;11821;51.456;8.844;2023-06-10T16:00:06;32.90;82.80
23305;DHT22;11821;51.456;8.844;2023-06-10T16:02:33;33.00;82.70
23305;DHT22;11821;51.456;8.844;2023-06-10T16:05:00;33.10;82.80
23305;DHT22;11821;51.456;8.844;2023-06-10T16:07:26;33.00;82.70
23305;DHT22;11821;51.456;8.844;2023-06-10T16:09:52;33.00;84.40
23305;DHT22;11821;51.456;8.844;2023-06-10T16:12:20;33.00;82.70
23305;DHT22;11821;51.456;8.844;2023-06-10T16:14:46;32.70;83.00
23305;DHT22;11821;51.456;8.844;2023-06-10T16:17:13;32.40;83.70
23305;DHT22;11821;51.456;8.844;2023-06-10T16:19:39;32.30;83.90
23305;DHT22;11821;51.456;8.844;2023-06-10T16:22:05;32.00;85.20
23305;DHT22;11821;51.456;8.844;2023-06-10T16:24:31;31.90;85.00
23305;DHT22;11821;51.456;8.844;2023-06-10T16:26:57;31.50;84.40
23305;DHT22;11821;51.456;8.844;2023-06-10T16:29:23;31.10;86.10
23305;DHT22;11821;51.456;8.844;2023-06-10T16:31:51;30.80;87.10
23305;DHT22;11821;51.456;8.844;2023-06-10T16:34:17;30.80;88.40
23305;DHT22;11821;51.456;8.844;2023-06-10T16:36:43;30.70;90.00
23305;DHT22;11821;51.456;8.844;2023-06-10T16:39:10;30.80;89.80
23305;DHT22;11821;51.456;8.844;2023-06-10T16:41:36;31.00;90.60
23305;DHT22;11821;51.456;8.844;2023-06-10T16:44:02;31.10;90.50
23305;DHT22;11821;51.456;8.844;2023-06-10T16:46:28;31.10;90.40
23305;DHT22;11821;51.456;8.844;2023-06-10T16:48:54;31.40;90.90
23305;DHT22;11821;51.456;8.844;2023-06-10T16:51:21;31.40;90.60
23305;DHT22;11821;51.456;8.844;2023-06-10T16:53:47;31.50;90.50
23305;DHT22;11821;51.456;8.844;2023-06-10T16:56:13;31.20;91.10
23305;DHT22;11821;51.456;8.844;2023-06-10T16:58:39;31.10;91.20
23305;DHT22;11821;51.456;8.844;2023-06-10T17:01:07;31.10;90.50
23305;DHT22;11821;51.456;8.844;2023-06-10T17:03:34;31.10;90.50
23305;DHT22;11821;51.456;8.844;2023-06-10T17:06:01;31.10;90.70
23305;DHT22;11821;51.456;8.844;2023-06-10T17:08:27;31.20;91.20
23305;DHT22;11821;51.456;8.844;2023-06-10T17:10:53;31.40;90.50
23305;DHT22;11821;51.456;8.844;2023-06-10T17:13:19;31.30;90.60
23305;DHT22;11821;51.456;8.844;2023-06-10T17:15:46;31.30;90.60
23305;DHT22;11821;51.456;8.844;2023-06-10T17:18:12;31.30;90.60
23305;DHT22;11821;51.456;8.844;2023-06-10T17:20:38;31.50;90.80
23305;DHT22;11821;51.456;8.844;2023-06-10T17:23:05;31.40;90.20
23305;DHT22;11821;51.456;8.844;2023-06-10T17:25:32;31.40;90.80
23305;DHT22;11821;51.456;8.844;2023-06-10T17:28:00;31.30;91.10
23305;DHT22;11821;51.456;8.844;2023-06-10T17:30:26;31.20;90.20
23305;DHT22;11821;51.456;8.844;2023-06-10T17:32:52;31.00;89.20
23305;DHT22;11821;51.456;8.844;2023-06-10T17:35:18;31.10;90.00
23305;DHT22;11821;51.456;8.844;2023-06-10T17:37:44;31.00;90.80
23305;DHT22;11821;51.456;8.844;2023-06-10T17:40:11;30.90;90.50
23305;DHT22;11821;51.456;8.844;2023-06-10T17:42:38;30.80;90.60
23305;DHT22;11821;51.456;8.844;2023-06-10T17:45:05;30.60;90.10
23305;DHT22;11821;51.456;8.844;2023-06-10T17:47:31;30.60;90.00
23305;DHT22;11821;51.456;8.844;2023-06-10T17:49:58;30.30;90.10
23305;DHT22;11821;51.456;8.844;2023-06-10T17:52:24;30.40;91.70
23305;DHT22;11821;51.456;8.844;2023-06-10T17:54:50;30.40;90.90
23305;DHT22;11821;51.456;8.844;2023-06-10T17:57:16;30.30;90.60
23305;DHT22;11821;51.456;8.844;2023-06-10T17:59:42;30.20;91.20
23305;DHT22;11821;51.456;8.844;2023-06-10T18:02:09;30.00;90.60
23305;DHT22;11821;51.456;8.844;2023-06-10T18:04:35;30.10;91.50
23305;DHT22;11821;51.456;8.844;2023-06-10T18:07:02;30.10;90.80
23305;DHT22;11821;51.456;8.844;2023-06-10T18:09:28;30.20;92.10
23305;DHT22;11821;51.456;8.844;2023-06-10T18:11:54;30.20;91.20
23305;DHT22;11821;51.456;8.844;2023-06-10T18:14:20;30.20;92.10
23305;DHT22;11821;51.456;8.844;2023-06-10T18:16:46;30.10;91.70
23305;DHT22;11821;51.456;8.844;2023-06-10T18:19:13;29.00;91.10
23305;DHT22;11821;51.456;8.844;2023-06-10T18:21:40;28.40;91.70
23305;DHT22;11821;51.456;8.844;2023-06-10T18:24:08;28.10;91.80
23305;DHT22;11821;51.456;8.844;2023-06-10T18:26:34;27.80;92.00
23305;DHT22;11821;51.456;8.844;2023-06-10T18:29:00;27.60;91.80
23305;DHT22;11821;51.456;8.844;2023-06-10T18:31:27;27.50;92.40
23305;DHT22;11821;51.456;8.844;2023-06-10T18:33:53;27.40;92.30
23305;DHT22;11821;51.456;8.844;2023-06-10T18:36:19;27.30;93.10
23305;DHT22;11821;51.456;8.844;2023-06-10T18:38:45;27.30;93.10
23305;DHT22;11821;51.456;8.844;2023-06-10T18:41:12;27.20;92.70
23305;DHT22;11821;51.456;8.844;2023-06-10T18:43:38;27.30;93.20
23305;DHT22;11821;51.456;8.844;2023-06-10T18:46:05;27.00;93.10
23305;DHT22;11821;51.456;8.844;2023-06-10T18:48:31;26.90;93.60
23305;DHT22;11821;51.456;8.844;2023-06-10T18:50:57;26.80;93.60
23305;DHT22;11821;51.456;8.844;2023-06-10T18:53:23;26.60;93.80
23305;DHT22;11821;51.456;8.844;2023-06-10T18:55:50;26.60;93.60
23305;DHT22;11821;51.456;8.844;2023-06-10T18:58:16;26.80;93.90
23305;DHT22;11821;51.456;8.844;2023-06-10T19:00:42;26.70;93.50
23305;DHT22;11821;51.456;8.844;2023-06-10T19:03:08;26.80;94.20
23305;DHT22;11821;51.456;8.844;2023-06-10T19:05:34;26.60;93.80
23305;DHT22;11821;51.456;8.844;2023-06-10T19:08:01;26.70;93.90
23305;DHT22;11821;51.456;8.844;2023-06-10T19:10:27;26.70;94.50
23305;DHT22;11821;51.456;8.844;2023-06-10T19:12:53;26.70;94.10
23305;DHT22;11821;51.456;8.844;2023-06-10T19:15:19;26.80;94.60
23305;DHT22;11821;51.456;8.844;2023-06-10T19:17:45;26.70;94.40
23305;DHT22;11821;51.456;8.844;2023-06-10T19:20:12;26.70;94.50
23305;DHT22;11821;51.456;8.844;2023-06-10T19:22:38;26.70;94.50
23305;DHT22;11821;51.456;8.844;2023-06-10T19:25:06;26.70;94.30
23305;DHT22;11821;51.456;8.844;2023-06-10T19:27:33;26.60;94.20
23305;DHT22;11821;51.456;8.844;2023-06-10T19:30:00;26.60;94.90
23305;DHT22;11821;51.456;8.844;2023-06-10T19:32:27;26.50;94.30
23305;DHT22;11821;51.456;8.844;2023-06-10T19:34:53;26.50;94.40
23305;DHT22;11821;51.456;8.844;2023-06-10T19:37:20;26.40;94.80
23305;DHT22;11821;51.456;8.844;2023-06-10T19:39:46;26.40;95.20
23305;DHT22;11821;51.456;8.844;2023-06-10T19:42:12;26.40;95.00
23305;DHT22;11821;51.456;8.844;2023-06-10T19:44:39;26.20;95.40
23305;DHT22;11821;51.456;8.844;2023-06-10T19:47:05;26.10;95.30
23305;DHT22;11821;51.456;8.844;2023-06-10T19:49:32;26.00;96.00
23305;DHT22;11821;51.456;8.844;2023-06-10T19:51:58;25.90;95.90
23305;DHT22;11821;51.456;8.844;2023-06-10T19:54:24;25.80;95.90
23305;DHT22;11821;51.456;8.844;2023-06-10T19:56:50;25.90;96.00
23305;DHT22;11821;51.456;8.844;2023-06-10T19:59:16;25.80;95.80
23305;DHT22;11821;51.456;8.844;2023-06-10T20:01:42;25.70;96.10
23305;DHT22;11821;51.456;8.844;2023-06-10T20:04:09;25.70;96.10
23305;DHT22;11821;51.456;8.844;2023-06-10T20:06:35;25.50;96.10
23305;DHT22;11821;51.456;8.844;2023-06-10T20:09:01;25.50;96.50
23305;DHT22;11821;51.456;8.844;2023-06-10T20:11:27;25.40;96.50
23305;DHT22;11821;51.456;8.844;2023-06-10T20:13:53;25.30;96.90
23305;DHT22;11821;51.456;8.844;2023-06-10T20:16:20;25.30;97.20
23305;DHT22;11821;51.456;8.844;2023-06-10T20:18:49;25.20;97.10
23305;DHT22;11821;51.456;8.844;2023-06-10T20:21:18;25.10;97.10
23305;DHT22;11821;51.456;8.844;2023-06-10T20:23:46;25.00;97.40
23305;DHT22;11821;51.456;8.844;2023-06-10T20:26:12;24.90;97.30
23305;DHT22;11821;51.456;8.844;2023-06-10T20:28:38;24.90;97.60
23305;DHT22;11821;51.456;8.844;2023-06-10T20:31:05;24.70;97.60
23305;DHT22;11821;51.456;8.844;2023-06-10T20:33:31;24.60;98.10
23305;DHT22;11821;51.456;8.844;2023-06-10T20:35:57;24.60;98.40
23305;DHT22;11821;51.456;8.844;2023-06-10T20:38:23;24.40;98.30
23305;DHT22;11821;51.456;8.844;2023-06-10T20:40:50;24.40;98.60
23305;DHT22;11821;51.456;8.844;2023-06-10T20:43:17;24.30;98.50
23305;DHT22;11821;51.456;8.844;2023-06-10T20:45:43;24.30;98.80
23305;DHT22;11821;51.456;8.844;2023-06-10T20:48:10;24.20;98.40
23305;DHT22;11821;51.456;8.844;2023-06-10T20:50:36;24.20;98.70
23305;DHT22;11821;51.456;8.844;2023-06-10T20:53:02;24.10;99.10
23305;DHT22;11821;51.456;8.844;2023-06-10T20:55:28;24.00;98.80
23305;DHT22;11821;51.456;8.844;2023-06-10T20:57:56;23.90;99.50
23305;DHT22;11821;51.456;8.844;2023-06-10T21:00:25;23.90;99.20
23305;DHT22;11821;51.456;8.844;2023-06-10T21:02:51;23.80;99.50
23305;DHT22;11821;51.456;8.844;2023-06-10T21:05:18;23.70;99.90
23305;DHT22;11821;51.456;8.844;2023-06-10T21:07:44;23.60;99.90
23305;DHT22;11821;51.456;8.844;2023-06-10T21:10:12;23.50;99.90
23305;DHT22;11821;51.456;8.844;2023-06-10T21:12:39;23.50;99.90
23305;DHT22;11821;51.456;8.844;2023-06-10T21:15:06;23.50;99.90
23305;DHT22;11821;51.456;8.844;2023-06-10T21:17:32;23.40;99.90
23305;DHT22;11821;51.456;8.844;2023-06-10T21:19:59;23.30;99.90
23305;DHT22;11821;51.456;8.844;2023-06-10T21:22:25;23.20;99.90
23305;DHT22;11821;51.456;8.844;2023-06-10T21:24:51;23.00;99.90
23305;DHT22;11821;51.456;8.844;2023-06-10T21:27:17;22.90;99.90
23305;DHT22;11821;51.456;8.844;2023-06-10T21:29:44;22.80;99.90
23305;DHT22;11821;51.456;8.844;2023-06-10T21:32:10;22.70;99.90
23305;DHT22;11821;51.456;8.844;2023-06-10T21:34:37;22.70;99.90
23305;DHT22;11821;51.456;8.844;2023-06-10T21:37:03;22.60;99.90
23305;DHT22;11821;51.456;8.844;2023-06-10T21:39:30;22.50;99.90
23305;DHT22;11821;51.456;8.844;2023-06-10T21:41:56;22.40;99.90
23305;DHT22;11821;51.456;8.844;2023-06-10T21:44:23;22.40;99.90
23305;DHT22;11821;51.456;8.844;2023-06-10T21:46:49;22.30;99.90
23305;DHT22;11821;51.456;8.844;2023-06-10T21:49:15;22.20;99.90
23305;DHT22;11821;51.456;8.844;2023-06-10T21:51:41;22.10;99.90
23305;DHT22;11821;51.456;8.844;2023-06-10T21:54:09;22.00;99.90
23305;DHT22;11821;51.456;8.844;2023-06-10T21:56:35;21.90;99.90
23305;DHT22;11821;51.456;8.844;2023-06-10T21:59:01;21.80;99.90
23305;DHT22;11821;51.456;8.844;2023-06-10T22:01:28;21.70;99.90
23305;DHT22;11821;51.456;8.844;2023-06-10T22:03:57;21.60;99.90
23305;DHT22;11821;51.456;8.844;2023-06-10T22:06:23;21.50;99.90
23305;DHT22;11821;51.456;8.844;2023-06-10T22:08:49;21.40;99.90
23305;DHT22;11821;51.456;8.844;2023-06-10T22:11:16;21.40;99.90
23305;DHT22;11821;51.456;8.844;2023-06-10T22:13:42;21.30;99.90
23305;DHT22;11821;51.456;8.844;2023-06-10T22:16:08;21.20;99.90
23305;DHT22;11821;51.456;8.844;2023-06-10T22:18:34;21.20;99.90
23305;DHT22;11821;51.456;8.844;2023-06-10T22:21:00;21.20;99.90
23305;DHT22;11821;51.456;8.844;2023-06-10T22:23:27;21.10;99.90
23305;DHT22;11821;51.456;8.844;2023-06-10T22:25:53;21.00;99.90
23305;DHT22;11821;51.456;8.844;2023-06-10T22:28:20;20.90;99.90
23305;DHT22;11821;51.456;8.844;2023-06-10T22:30:46;20.90;99.90
23305;DHT22;11821;51.456;8.844;2023-06-10T22:33:12;20.80;99.90
23305;DHT22;11821;51.456;8.844;2023-06-10T22:35:38;20.80;99.90
23305;DHT22;11821;51.456;8.844;2023-06-10T22:38:05;20.70;99.90
23305;DHT22;11821;51.456;8.844;2023-06-10T22:40:31;20.70;99.90
23305;DHT22;11821;51.456;8.844;2023-06-10T22:42:57;20.60;99.90